createdAt,value
2018-05-11T00:02:49.300Z,2.2
2018-05-11T00:05:49.068Z,2.2
2018-05-11T00:08:49.094Z,2.2
2018-05-11T00:11:49.565Z,2.8
2018-05-11T00:14:49.241Z,2.1
2018-05-11T00:17:49.183Z,2.5
2018-05-11T00:20:49.008Z,2.2
2018-05-11T00:23:49.023Z,2.8
2018-05-11T00:26:49.113Z,2.1
2018-05-11T00:29:49.169Z,2.1
2018-05-11T00:32:49.064Z,2.8
2018-05-11T00:35:49.219Z,2.4
2018-05-11T00:38:49.302Z,2
2018-05-11T00:41:49.094Z,2.2
2018-05-11T00:44:49.211Z,2.2
2018-05-11T00:47:49.342Z,2.3
2018-05-11T00:50:49.055Z,2.3
2018-05-11T00:53:49.320Z,2
2018-05-11T00:56:49.198Z,2.7
2018-05-11T00:59:49.375Z,2.4
2018-05-11T01:02:49.110Z,2.2
2018-05-11T01:05:49.036Z,2.2
2018-05-11T01:08:49.310Z,2.1
2018-05-11T01:11:49.024Z,2.2
2018-05-11T01:14:49.194Z,2.3
2018-05-11T01:17:49.236Z,2.1
2018-05-11T01:20:49.259Z,2.5
2018-05-11T01:23:49.021Z,2.1
2018-05-11T01:26:49.200Z,2.5
2018-05-11T01:29:49.158Z,2
2018-05-11T01:32:49.056Z,2.1
2018-05-11T01:35:49.253Z,1.9
2018-05-11T01:38:49.173Z,2
2018-05-11T01:41:49.198Z,2.9
2018-05-11T01:44:49.124Z,2.7
2018-05-11T01:47:49.127Z,2.2
2018-05-11T01:50:49.025Z,2.1
2018-05-11T01:53:49.113Z,2.3
2018-05-11T01:56:49.048Z,2
2018-05-11T01:59:49.071Z,2.1
2018-05-11T02:02:49.019Z,2.1
2018-05-11T02:05:49.575Z,2
2018-05-11T02:08:49.092Z,2
2018-05-11T02:11:49.167Z,2.4
2018-05-11T02:14:49.104Z,2.1
2018-05-11T02:17:49.005Z,2.1
2018-05-11T02:20:49.327Z,2.8
2018-05-11T02:23:49.027Z,2.1
2018-05-11T02:26:49.065Z,2.2
2018-05-11T02:29:49.195Z,2.5
2018-05-11T02:32:49.242Z,2.1
2018-05-11T02:35:49.136Z,2.1
2018-05-11T02:38:49.248Z,2.1
2018-05-11T02:41:49.158Z,2.6
2018-05-11T02:44:49.106Z,2.1
2018-05-11T02:47:49.029Z,2
2018-05-11T02:50:49.105Z,2.1
2018-05-11T02:53:49.202Z,2
2018-05-11T02:56:49.161Z,2
2018-05-11T02:59:49.066Z,1.9
2018-05-11T03:02:49.242Z,1.9
2018-05-11T03:05:49.060Z,2
2018-05-11T03:08:49.220Z,2.1
2018-05-11T03:11:49.134Z,2.1
2018-05-11T03:14:49.210Z,2
2018-05-11T03:17:49.211Z,2.1
2018-05-11T03:20:49.311Z,2.1
2018-05-11T03:23:49.189Z,2.8
2018-05-11T03:26:49.061Z,2.1
2018-05-11T03:29:49.148Z,2.3
2018-05-11T03:32:49.143Z,1.9
2018-05-11T03:35:49.143Z,1.9
2018-05-11T03:38:49.058Z,2.1
2018-05-11T03:41:49.119Z,2
2018-05-11T03:44:49.081Z,2.1
2018-05-11T03:47:49.113Z,1.9
2018-05-11T03:50:48.957Z,2.2
2018-05-11T03:53:48.975Z,2
2018-05-11T03:56:49.081Z,2
2018-05-11T03:59:49.351Z,2
2018-05-11T04:02:48.964Z,1.9
2018-05-11T04:05:49.065Z,1.9
2018-05-11T04:08:48.980Z,2
2018-05-11T04:11:49.187Z,2
2018-05-11T04:14:48.986Z,2.2
2018-05-11T04:17:49.064Z,1.9
2018-05-11T04:20:49.947Z,2
2018-05-11T04:23:48.965Z,1.8
2018-05-11T04:26:49.053Z,2
2018-05-11T04:29:48.926Z,1.9
2018-05-11T04:32:48.926Z,2
2018-05-11T04:35:48.944Z,2.7
2018-05-11T04:38:49.313Z,2.1
2018-05-11T04:41:49.068Z,2
2018-05-11T04:44:49.169Z,1.9
2018-05-11T04:47:49.110Z,2
2018-05-11T04:50:49.172Z,2.8
2018-05-11T04:53:49.261Z,1.9
2018-05-11T04:56:49.023Z,2
2018-05-11T04:59:49.209Z,2.2
2018-05-11T05:02:49.037Z,2
2018-05-11T05:05:48.927Z,1.9
2018-05-11T05:08:49.096Z,2.1
2018-05-11T05:11:49.064Z,2
2018-05-11T05:14:49.051Z,1.9
2018-05-11T05:17:48.990Z,2.1
2018-05-11T05:20:49.043Z,1.9
2018-05-11T05:23:49.076Z,2.8
2018-05-11T05:26:49.388Z,1.8
2018-05-11T05:29:49.018Z,1.9
2018-05-11T05:32:48.988Z,1.8
2018-05-11T05:35:49.125Z,2
2018-05-11T05:38:49.004Z,1.9
2018-05-11T05:41:49.020Z,1.9
2018-05-11T05:44:49.020Z,2.6
2018-05-11T05:47:49.171Z,1.9
2018-05-11T05:50:49.051Z,2
2018-05-11T05:53:49.235Z,1.8
2018-05-11T05:56:49.032Z,1.8
2018-05-11T05:59:49.224Z,2.2
2018-05-11T06:02:49.231Z,1.7
2018-05-11T06:05:49.054Z,2.1
2018-05-11T06:08:49.026Z,2.1
2018-05-11T06:11:49.060Z,2.1
2018-05-11T06:14:49.009Z,2.1
2018-05-11T06:17:49.117Z,2
2018-05-11T06:20:49.013Z,1.8
2018-05-11T06:23:49.137Z,1.9
2018-05-11T06:26:49.400Z,2.1
2018-05-11T06:29:49.000Z,1.8
2018-05-11T06:32:49.193Z,1.9
2018-05-11T06:35:49.600Z,1.9
2018-05-11T06:38:49.116Z,1.9
2018-05-11T06:41:49.114Z,1.9
2018-05-11T06:44:49.097Z,2
2018-05-11T06:47:49.020Z,1.9
2018-05-11T06:50:49.193Z,2.7
2018-05-11T06:53:49.114Z,1.9
2018-05-11T06:56:49.606Z,1.8
2018-05-11T06:59:49.042Z,1.9
2018-05-11T07:02:49.239Z,2.2
2018-05-11T07:05:48.904Z,1.7
2018-05-11T07:08:49.003Z,2.5
2018-05-11T07:11:49.153Z,1.9
2018-05-11T07:14:48.940Z,1.8
2018-05-11T07:17:48.997Z,2
2018-05-11T07:20:49.035Z,1.8
2018-05-11T07:23:49.040Z,1.9
2018-05-11T07:26:49.103Z,1.8
2018-05-11T07:29:48.946Z,2.1
2018-05-11T07:32:49.045Z,1.9
2018-05-11T07:35:49.193Z,1.8
2018-05-11T07:38:49.091Z,1.9
2018-05-11T07:41:48.992Z,2.1
2018-05-11T07:44:49.275Z,4
2018-05-11T07:47:49.141Z,2.1
2018-05-11T07:50:48.910Z,3.5
2018-05-11T07:53:48.918Z,2.3
2018-05-11T07:56:48.938Z,2.9
2018-05-11T07:59:49.129Z,3.3
2018-05-11T08:02:48.948Z,2.3
2018-05-11T08:05:49.137Z,3.7
2018-05-11T08:08:49.086Z,2.4
2018-05-11T08:11:49.093Z,3.4
2018-05-11T08:14:48.903Z,3.2
2018-05-11T08:17:49.012Z,2.4
2018-05-11T08:20:49.309Z,2.2
2018-05-11T08:23:48.945Z,2.6
2018-05-11T08:26:50.399Z,2.4
2018-05-11T08:29:48.962Z,2.5
2018-05-11T08:32:48.936Z,2.2
2018-05-11T08:35:50.225Z,2.7
2018-05-11T08:38:48.983Z,2.3
2018-05-11T08:41:48.953Z,2.4
2018-05-11T08:44:49.043Z,2.4
2018-05-11T08:47:49.012Z,11.1
2018-05-11T08:50:49.084Z,20
2018-05-11T08:53:49.034Z,13.7
2018-05-11T08:56:48.923Z,12.2
2018-05-11T08:59:49.062Z,12.2
2018-05-11T09:02:48.961Z,14.1
2018-05-11T09:05:48.911Z,14.5
2018-05-11T09:08:49.037Z,11.1
2018-05-11T09:11:48.995Z,10.3
2018-05-11T09:14:49.023Z,10.5
2018-05-11T09:17:48.928Z,8.4
2018-05-11T09:20:48.933Z,8.2
2018-05-11T09:23:48.976Z,9.7
2018-05-11T09:26:48.964Z,9.1
2018-05-11T09:29:49.040Z,9.7
2018-05-11T09:32:48.944Z,8.1
2018-05-11T09:35:48.960Z,7.3
2018-05-11T09:38:49.043Z,7.5
2018-05-11T09:41:49.055Z,9.2
2018-05-11T09:46:14.354Z,9.5
2018-05-11T09:49:14.492Z,8.6
2018-05-11T09:52:24.367Z,7.2
2018-05-11T09:55:14.500Z,8.2
2018-05-11T09:58:14.366Z,7.2
2018-05-11T10:01:14.325Z,7.4
2018-05-11T10:04:14.330Z,9.4
2018-05-11T10:07:14.461Z,7.3
2018-05-11T10:10:14.487Z,5.6
2018-05-11T10:13:14.393Z,5.6
2018-05-11T10:16:14.384Z,5
2018-05-11T10:19:14.462Z,8
2018-05-11T10:22:14.536Z,7
2018-05-11T10:25:14.329Z,6.4
2018-05-11T10:28:14.618Z,5.4
2018-05-11T10:31:14.404Z,4.9
2018-05-11T10:34:14.509Z,5.1
2018-05-11T10:37:14.396Z,5.3
2018-05-11T10:40:14.484Z,6.5
2018-05-11T10:43:14.361Z,5.1
2018-05-11T10:46:14.258Z,4.2
2018-05-11T10:49:14.363Z,5.1
2018-05-11T10:52:14.431Z,5.7
2018-05-11T10:55:14.444Z,4.7
2018-05-11T10:58:14.580Z,4.7
2018-05-11T11:01:24.515Z,6.3
2018-05-11T11:04:14.484Z,4.6
2018-05-11T11:10:17.559Z,7.1
2018-05-11T11:17:00.963Z,13
2018-05-11T11:20:02.043Z,12.3
2018-05-11T11:23:00.958Z,7.6
2018-05-11T11:26:01.428Z,6.3
2018-05-11T11:29:00.474Z,8.2
2018-05-11T11:32:00.449Z,8.7
2018-05-11T11:38:35.015Z,8.4
2018-05-11T11:47:57.100Z,7.7
2018-05-11T11:50:57.148Z,6.6
2018-05-11T11:53:57.243Z,8.3
2018-05-11T11:56:57.386Z,8.2
2018-05-11T11:59:57.156Z,6.3
2018-05-11T12:02:57.437Z,4
2018-05-11T12:05:57.203Z,5.9
2018-05-11T12:08:57.827Z,5.4
2018-05-11T12:11:57.206Z,4.6
2018-05-11T12:14:57.440Z,5.7
2018-05-11T12:17:57.305Z,6.7
2018-05-11T12:20:57.112Z,4
2018-05-11T12:23:57.310Z,5.2
2018-05-11T12:26:57.148Z,5.2
2018-05-11T12:29:57.114Z,4.2
2018-05-11T12:32:57.174Z,3.5
2018-05-11T12:35:57.241Z,3.6
2018-05-11T19:04:53.142Z,3.5
2018-05-11T19:07:53.045Z,5.2
2018-05-11T19:10:53.099Z,3.8
2018-05-11T19:13:53.327Z,4.3
2018-05-11T19:16:53.098Z,3.5
2018-05-11T19:19:53.284Z,4.4
2018-05-11T19:22:53.009Z,3
2018-05-11T19:25:53.081Z,4.7
2018-05-11T19:28:53.245Z,4.4
2018-05-11T19:31:53.320Z,3.4
2018-05-11T19:34:53.041Z,4.4
2018-05-11T19:37:53.111Z,13.3
2018-05-11T19:40:53.233Z,6.8
2018-05-11T19:43:53.129Z,6.1
2018-05-11T19:46:53.019Z,8.1
2018-05-11T19:49:53.075Z,7.6
2018-05-11T19:52:53.167Z,4.9
2018-05-11T19:55:53.385Z,5.2
2018-05-11T19:58:53.188Z,6
2018-05-11T20:01:53.073Z,6.9
2018-05-11T20:04:53.217Z,6.7
2018-05-11T20:07:53.063Z,6.3
2018-05-11T20:10:53.911Z,7.3
2018-05-11T20:13:53.130Z,4.7
2018-05-11T20:16:53.361Z,6.1
2018-05-11T20:19:53.002Z,5.5
2018-05-11T20:22:53.198Z,5.1
2018-05-11T20:25:53.330Z,6.1
2018-05-11T20:28:53.155Z,4.7
2018-05-11T20:31:53.077Z,6.2
2018-05-11T20:34:53.078Z,5.6
2018-05-11T20:37:53.177Z,7.1
2018-05-11T20:40:52.978Z,6.7
2018-05-11T20:43:52.929Z,4.9
2018-05-11T20:46:52.947Z,4.6
2018-05-11T20:51:47.952Z,5.4
2018-05-11T20:54:47.863Z,5.5
2018-05-11T20:57:49.009Z,5.9
2018-05-11T21:00:47.947Z,4.5
2018-05-11T21:03:47.744Z,6.7
2018-05-11T21:06:48.360Z,4.3
2018-05-11T21:09:47.761Z,3.4
2018-05-11T21:12:47.932Z,3.7
2018-05-11T21:15:47.870Z,3.2
2018-05-11T21:18:47.780Z,3.5
2018-05-11T21:21:47.793Z,3.9
2018-05-11T21:24:47.848Z,4.3
2018-05-11T21:27:48.003Z,4
2018-05-11T21:30:47.630Z,4
2018-05-11T21:33:47.804Z,3.8
2018-05-11T21:36:47.797Z,4.9
2018-05-11T21:39:47.846Z,3.7
2018-05-11T21:42:48.178Z,3.5
2018-05-11T21:45:47.621Z,3.6
2018-05-11T21:48:47.808Z,3.8
2018-05-11T21:51:47.701Z,3.5
2018-05-11T21:54:47.931Z,3.7
2018-05-11T21:57:47.823Z,3.7
2018-05-11T22:00:47.946Z,3.5
2018-05-11T22:03:47.827Z,4.7
2018-05-11T22:06:47.675Z,3.2
2018-05-11T22:09:47.835Z,3.6
2018-05-11T22:12:47.806Z,4
2018-05-11T22:15:47.795Z,4.4
2018-05-11T22:18:47.644Z,3.5
2018-05-11T22:21:47.749Z,4
2018-05-11T22:24:47.701Z,3.1
2018-05-11T22:27:47.598Z,3.5
2018-05-11T22:30:47.680Z,3.4
2018-05-11T22:33:47.650Z,3.2
2018-05-11T22:36:47.840Z,3.5
2018-05-11T22:39:47.895Z,3.2
2018-05-11T22:42:47.882Z,3.2
2018-05-11T22:45:47.839Z,3.4
2018-05-11T22:48:47.890Z,3.8
2018-05-11T22:51:47.816Z,3.2
2018-05-11T22:54:47.774Z,2.9
2018-05-11T22:57:47.814Z,3.2
2018-05-11T23:00:47.781Z,3.5
2018-05-11T23:03:47.798Z,3.2
2018-05-11T23:06:47.658Z,3.1
2018-05-11T23:09:47.750Z,3.5
2018-05-11T23:12:47.633Z,3.3
2018-05-11T23:15:47.654Z,3.2
2018-05-11T23:18:47.791Z,3.1
2018-05-11T23:21:47.697Z,3.3
2018-05-11T23:24:47.619Z,3.3
2018-05-11T23:27:48.580Z,3.2
2018-05-11T23:30:47.703Z,3.9
2018-05-11T23:33:47.651Z,3
2018-05-11T23:36:47.641Z,3.3
2018-05-11T23:39:47.635Z,3.1
2018-05-11T23:42:47.658Z,3.2
2018-05-11T23:45:47.675Z,3.5
2018-05-11T23:48:47.700Z,3.2
2018-05-11T23:51:47.686Z,3.7
2018-05-11T23:54:47.683Z,3.2
2018-05-11T23:57:47.752Z,3.3
